Time;durP1;ratioP1;P1;durP2;ratioP2;P2;SDS_P1;SDS_P2;PMS_P1;PMS_P2;Temp;Humidity;BMP_temperature;BMP_pressure;BME280_temperature;BME280_humidity;BME280_pressure;Samples;Min_cycle;Max_cycle;Signal;HPM_P1;HPM_P2
2022/12/06 00:01:37;;;;;;;13.93;5.70;;;7.20;99.90;;;;;;5050758;28;20231;-63
2022/12/06 00:04:10;;;;;;;12.50;5.03;;;7.60;99.90;;;;;;5043542;28;20216;-63
2022/12/06 00:06:42;;;;;;;13.43;6.20;;;7.40;99.90;;;;;;5030915;28;20317;-63
2022/12/06 00:09:15;;;;;;;13.27;5.07;;;7.50;99.90;;;;;;5013151;28;20178;-61
2022/12/06 00:11:41;;;;;;;14.30;6.00;;;7.80;99.90;;;;;;5030525;28;20205;-62
2022/12/06 00:14:07;;;;;;;17.83;5.93;;;7.30;99.90;;;;;;5030616;28;20216;-62
2022/12/06 00:16:34;;;;;;;16.83;5.60;;;7.50;99.90;;;;;;5039872;28;20218;-62
2022/12/06 00:19:00;;;;;;;15.53;6.17;;;7.60;99.90;;;;;;5050533;28;20604;-62
2022/12/06 00:21:31;;;;;;;12.60;5.93;;;7.40;99.90;;;;;;5052163;28;20183;-61
2022/12/06 00:23:59;;;;;;;11.00;5.53;;;7.40;99.90;;;;;;5054468;28;20188;-61
2022/12/06 00:26:25;;;;;;;20.50;5.90;;;7.90;99.90;;;;;;5054210;28;20216;-61
2022/12/06 00:28:53;;;;;;;16.47;6.03;;;7.50;99.90;;;;;;5054343;28;20644;-61
2022/12/06 00:31:21;;;;;;;14.73;6.43;;;7.30;99.90;;;;;;5053594;28;20243;-61
2022/12/06 00:33:47;;;;;;;14.40;5.67;;;7.30;99.90;;;;;;5044680;28;20217;-61
2022/12/06 00:36:16;;;;;;;13.93;5.70;;;7.20;99.90;;;;;;5033870;28;20220;-61
2022/12/06 00:38:42;;;;;;;23.67;6.27;;;7.10;99.90;;;;;;5045294;28;20184;-61
2022/12/06 00:41:10;;;;;;;19.30;5.93;;;6.70;99.90;;;;;;5048947;28;20178;-61
2022/12/06 00:43:36;;;;;;;14.60;5.50;;;7.00;99.90;;;;;;5051939;28;20306;-61
2022/12/06 00:46:03;;;;;;;13.93;5.60;;;7.00;99.90;;;;;;5052910;28;20237;-61
2022/12/06 00:48:29;;;;;;;13.83;5.93;;;7.30;99.90;;;;;;5039992;28;20173;-61
2022/12/06 00:50:56;;;;;;;16.67;6.57;;;7.00;99.90;;;;;;5047575;28;20192;-61
2022/12/06 00:53:22;;;;;;;13.33;6.27;;;7.10;99.90;;;;;;5053644;28;20216;-62
2022/12/06 00:55:48;;;;;;;16.13;6.27;;;6.90;99.90;;;;;;5043228;28;20178;-62
2022/12/06 00:58:14;;;;;;;14.67;6.33;;;6.60;99.90;;;;;;5053730;28;20568;-61
2022/12/06 01:00:40;;;;;;;17.10;6.53;;;7.10;99.90;;;;;;5046020;28;20186;-61
2022/12/06 01:03:06;;;;;;;18.53;6.37;;;7.00;99.90;;;;;;5049937;28;20227;-62
2022/12/06 01:05:32;;;;;;;20.13;6.23;;;7.40;99.90;;;;;;5052536;28;20209;-61
2022/12/06 01:07:58;;;;;;;19.17;6.50;;;6.80;99.90;;;;;;5048918;28;20280;-61
2022/12/06 01:10:24;;;;;;;14.37;6.00;;;7.10;99.90;;;;;;5053145;28;20598;-61
2022/12/06 01:12:50;;;;;;;11.67;6.27;;;6.90;99.90;;;;;;5053003;28;20186;-60
2022/12/06 01:15:15;;;;;;;17.60;5.90;;;7.10;99.90;;;;;;5051211;28;20262;-61
2022/12/06 01:17:41;;;;;;;15.07;6.40;;;6.80;99.90;;;;;;5049424;28;20520;-61
2022/12/06 01:20:08;;;;;;;22.27;6.70;;;6.60;99.90;;;;;;5053457;28;20223;-61
2022/12/06 01:22:34;;;;;;;16.10;6.23;;;6.90;99.90;;;;;;5036097;28;20184;-61
2022/12/06 01:24:59;;;;;;;17.97;6.20;;;6.80;99.90;;;;;;5034356;28;20186;-61
2022/12/06 01:27:26;;;;;;;17.40;6.90;;;;;;;;;;5051844;28;20217;-61
2022/12/06 01:29:51;;;;;;;26.10;6.90;;;6.80;99.90;;;;;;5044756;28;20204;-60
2022/12/06 01:32:17;;;;;;;16.90;6.50;;;;;;;;;;5051182;28;20180;-63
2022/12/06 01:34:44;;;;;;;18.77;6.60;;;6.70;99.90;;;;;;5052466;28;20616;-59
2022/12/06 01:37:10;;;;;;;20.07;6.90;;;6.70;99.90;;;;;;5047920;28;20226;-61
2022/12/06 01:39:36;;;;;;;17.60;6.77;;;6.60;99.90;;;;;;5039108;28;20180;-61
2022/12/06 01:42:01;;;;;;;22.73;6.67;;;6.90;99.90;;;;;;5052633;28;20271;-61
2022/12/06 01:44:43;;;;;;;19.47;7.10;;;6.90;99.90;;;;;;5052660;28;20228;-61
2022/12/06 01:47:27;;;;;;;15.87;6.97;;;6.80;99.90;;;;;;5043975;28;20558;-61
2022/12/06 01:49:59;;;;;;;15.43;7.30;;;6.80;99.90;;;;;;5052770;28;20169;-61
2022/12/06 01:52:34;;;;;;;15.87;6.77;;;6.60;99.90;;;;;;5052065;28;20173;-61
2022/12/06 01:55:01;;;;;;;18.13;6.60;;;6.70;99.90;;;;;;5051795;28;20168;-61
2022/12/06 01:57:27;;;;;;;14.90;7.00;;;7.10;99.90;;;;;;5040007;28;20212;-61
2022/12/06 01:59:52;;;;;;;16.33;7.23;;;6.30;99.90;;;;;;5037386;28;20182;-61
2022/12/06 02:02:18;;;;;;;15.47;7.13;;;6.70;99.90;;;;;;5049675;28;20299;-61
2022/12/06 02:04:44;;;;;;;24.50;7.50;;;7.70;99.90;;;;;;5041250;28;20689;-61
2022/12/06 02:07:11;;;;;;;21.37;7.13;;;6.90;99.90;;;;;;5052517;28;20217;-61
2022/12/06 02:09:38;;;;;;;25.53;7.10;;;7.10;99.90;;;;;;5039972;28;20186;-61
2022/12/06 02:12:10;;;;;;;19.03;7.30;;;7.30;99.90;;;;;;5032643;28;20281;-61
2022/12/06 02:14:36;;;;;;;19.27;7.13;;;6.80;99.90;;;;;;5032400;28;20209;-61
2022/12/06 02:17:22;;;;;;;19.97;7.13;;;7.70;99.90;;;;;;5032715;28;20224;-61
2022/12/06 02:20:12;;;;;;;19.37;6.97;;;6.90;99.90;;;;;;5032421;28;20182;-61
2022/12/06 02:22:56;;;;;;;17.80;6.87;;;6.70;99.90;;;;;;5051799;28;20169;-62
2022/12/06 02:25:46;;;;;;;15.93;6.77;;;6.80;99.90;;;;;;5044476;28;20219;-60
2022/12/06 02:28:39;;;;;;;21.33;7.23;;;6.80;99.90;;;;;;5050019;28;20173;-61
2022/12/06 02:31:27;;;;;;;13.97;6.00;;;6.80;99.90;;;;;;5051852;28;20188;-62
2022/12/06 02:34:00;;;;;;;15.40;6.70;;;6.80;99.90;;;;;;5051673;28;20312;-62
2022/12/06 02:36:54;;;;;;;14.50;6.33;;;7.10;99.90;;;;;;5048203;28;20178;-61
2022/12/06 02:39:19;;;;;;;13.37;5.93;;;6.70;99.90;;;;;;5047789;28;20267;-61
2022/12/06 02:41:55;;;;;;;18.70;6.00;;;6.20;99.90;;;;;;5037615;28;20257;-61
2022/12/06 02:44:32;;;;;;;17.83;6.07;;;6.60;99.90;;;;;;5031396;28;20276;-62
2022/12/06 02:47:00;;;;;;;13.87;5.67;;;6.60;99.90;;;;;;5048463;28;20209;-61
2022/12/06 02:49:30;;;;;;;15.57;6.07;;;6.80;99.90;;;;;;5051622;28;20174;-61
2022/12/06 02:51:56;;;;;;;17.53;5.80;;;6.60;99.90;;;;;;5050980;28;20233;-63
2022/12/06 02:54:24;;;;;;;13.73;6.23;;;6.60;99.90;;;;;;5051807;28;20181;-61
2022/12/06 02:56:49;;;;;;;14.20;5.93;;;6.60;99.90;;;;;;5044558;28;20264;-61
2022/12/06 02:59:15;;;;;;;11.23;5.80;;;6.80;99.90;;;;;;5036550;28;20648;-61
2022/12/06 03:01:45;;;;;;;16.80;5.80;;;6.70;99.90;;;;;;5037116;28;20648;-62
2022/12/06 03:04:48;;;;;;;14.53;6.13;;;6.60;99.90;;;;;;5050674;28;20180;-62
2022/12/06 03:07:28;;;;;;;24.60;6.37;;;6.80;99.90;;;;;;5038044;28;20266;-62
2022/12/06 03:10:15;;;;;;;17.83;6.17;;;6.60;99.90;;;;;;5046186;28;20180;-60
2022/12/06 03:12:54;;;;;;;15.60;6.13;;;6.60;99.90;;;;;;5040110;28;20184;-62
2022/12/06 03:15:40;;;;;;;16.50;5.80;;;6.60;99.90;;;;;;5042524;28;20295;-61
2022/12/06 03:18:08;;;;;;;16.33;6.10;;;6.40;99.90;;;;;;5034406;28;20212;-62
2022/12/06 03:20:48;;;;;;;16.87;5.93;;;6.50;99.90;;;;;;5023508;28;20202;-62
2022/12/06 03:23:18;;;;;;;14.57;6.50;;;7.10;99.90;;;;;;5040850;28;20180;-62
2022/12/06 03:25:45;;;;;;;17.87;6.87;;;6.50;99.90;;;;;;5050601;28;20201;-62
2022/12/06 03:28:14;;;;;;;14.33;5.90;;;6.80;99.90;;;;;;5046128;28;20185;-62
2022/12/06 03:30:43;;;;;;;14.80;6.50;;;6.30;99.90;;;;;;5049061;28;20176;-61
2022/12/06 03:33:10;;;;;;;16.13;6.33;;;6.60;99.90;;;;;;5038894;28;20252;-63
2022/12/06 03:35:36;;;;;;;16.80;7.07;;;6.40;99.90;;;;;;5027397;28;20598;-62
2022/12/06 03:38:09;;;;;;;13.83;6.30;;;6.40;99.90;;;;;;5046290;28;20224;-62
2022/12/06 03:40:39;;;;;;;15.50;7.37;;;6.30;99.90;;;;;;5042923;28;20184;-62
2022/12/06 03:43:05;;;;;;;17.30;7.47;;;6.30;99.90;;;;;;5050298;28;20264;-62
2022/12/06 03:45:47;;;;;;;16.13;7.03;;;6.20;99.90;;;;;;5034246;28;20645;-62
2022/12/06 03:48:19;;;;;;;16.53;7.67;;;6.30;99.90;;;;;;5032789;28;20185;-63
2022/12/06 03:50:53;;;;;;;13.53;7.30;;;6.10;99.90;;;;;;5030970;28;20172;-62
2022/12/06 03:53:19;;;;;;;13.97;6.83;;;6.40;99.90;;;;;;5038429;28;20666;-62
2022/12/06 03:55:45;;;;;;;18.90;7.53;;;6.00;99.90;;;;;;5053047;28;20177;-61
2022/12/06 03:58:11;;;;;;;14.73;7.70;;;6.40;99.90;;;;;;5038476;28;20231;-61
2022/12/06 04:00:37;;;;;;;13.87;7.27;;;6.20;99.90;;;;;;5050990;28;20586;-61
2022/12/06 04:03:02;;;;;;;18.60;7.60;;;6.50;99.90;;;;;;5054563;28;20591;-61
2022/12/06 04:05:28;;;;;;;22.77;8.17;;;6.70;99.90;;;;;;5054288;28;20181;-61
2022/12/06 04:07:54;;;;;;;20.27;7.43;;;6.30;99.90;;;;;;5035918;28;20191;-61
2022/12/06 04:10:19;;;;;;;16.60;7.33;;;6.20;99.90;;;;;;5053015;28;20177;-62
2022/12/06 04:13:00;;;;;;;16.50;7.20;;;6.20;99.90;;;;;;5044317;28;20188;-62
2022/12/06 04:15:28;;;;;;;14.73;7.00;;;6.20;99.90;;;;;;5054548;28;20263;-62
2022/12/06 04:18:09;;;;;;;13.73;6.77;;;;;;;;;;5054336;28;20177;-62
2022/12/06 04:23:24;;;;;;;13.47;7.43;;;6.50;99.90;;;;;;5052064;28;20200;-62
2022/12/06 04:25:49;;;;;;;13.87;6.57;;;6.40;99.90;;;;;;5034535;28;20202;-60
2022/12/06 04:39:12;;;;;;;17.53;7.43;;;6.20;99.90;;;;;;5054047;28;20651;-61
2022/12/06 04:44:21;;;;;;;18.70;6.70;;;6.30;99.90;;;;;;5034457;28;20212;-61
2022/12/06 04:46:47;;;;;;;14.97;7.43;;;6.50;99.90;;;;;;5050216;28;20241;-61
2022/12/06 04:49:12;;;;;;;16.97;7.73;;;6.30;99.90;;;;;;5051784;28;20268;-63
2022/12/06 04:51:38;;;;;;;16.50;7.17;;;6.20;99.90;;;;;;5044381;28;20181;-63
2022/12/06 04:54:04;;;;;;;14.53;7.43;;;6.30;99.90;;;;;;5033956;28;20674;-63
2022/12/06 04:56:30;;;;;;;18.00;7.27;;;6.20;99.90;;;;;;5051647;28;20191;-63
2022/12/06 04:58:56;;;;;;;15.57;7.07;;;7.00;99.90;;;;;;5053297;28;20173;-63
2022/12/06 05:01:21;;;;;;;16.63;7.53;;;6.50;99.90;;;;;;5046081;28;20720;-63
2022/12/06 05:03:47;;;;;;;14.80;8.03;;;5.70;99.90;;;;;;5034033;28;20510;-63
2022/12/06 05:06:12;;;;;;;17.00;7.87;;;6.40;99.90;;;;;;5041705;28;20205;-63
2022/12/06 05:08:38;;;;;;;16.87;7.67;;;6.20;99.90;;;;;;5053560;28;20291;-63
2022/12/06 05:11:04;;;;;;;15.47;7.13;;;6.30;99.90;;;;;;5042875;28;20207;-62
2022/12/06 05:13:30;;;;;;;22.63;7.37;;;5.50;99.90;;;;;;5033619;28;20637;-61
2022/12/06 05:16:01;;;;;;;19.50;7.23;;;6.10;99.90;;;;;;5033551;28;20174;-61
2022/12/06 05:18:27;;;;;;;16.13;7.67;;;;;;;;;;5033641;28;20264;-61
2022/12/06 05:21:12;;;;;;;17.00;8.20;;;6.00;99.90;;;;;;5033516;28;20185;-61
2022/12/06 05:23:37;;;;;;;21.00;8.40;;;6.50;99.90;;;;;;5041363;28;20173;-61
2022/12/06 05:26:06;;;;;;;18.07;7.23;;;6.10;99.90;;;;;;5051154;28;20678;-60
2022/12/06 05:28:32;;;;;;;16.40;7.80;;;6.40;99.90;;;;;;5053228;28;20209;-60
2022/12/06 05:30:58;;;;;;;18.97;7.77;;;6.20;99.90;;;;;;5053214;28;20169;-60
2022/12/06 05:33:24;;;;;;;19.17;8.20;;;6.50;99.90;;;;;;5052976;28;20275;-60
2022/12/06 05:35:50;;;;;;;20.37;7.70;;;6.40;99.90;;;;;;5052470;28;20195;-60
2022/12/06 05:38:17;;;;;;;17.60;8.17;;;6.70;99.90;;;;;;5045047;28;20177;-60
2022/12/06 05:40:43;;;;;;;17.17;7.77;;;6.40;99.90;;;;;;5052745;28;20242;-60
2022/12/06 05:43:09;;;;;;;15.77;7.70;;;6.30;99.90;;;;;;5034795;28;20189;-61
2022/12/06 05:45:36;;;;;;;17.57;7.43;;;6.30;99.90;;;;;;5039727;28;20182;-61
2022/12/06 05:48:01;;;;;;;17.40;8.43;;;7.00;99.90;;;;;;5032942;28;20261;-61
2022/12/06 05:50:27;;;;;;;19.33;7.70;;;6.50;99.90;;;;;;5037527;28;20220;-60
2022/12/06 05:52:54;;;;;;;15.20;8.40;;;6.90;99.90;;;;;;5045474;28;20185;-61
2022/12/06 05:55:20;;;;;;;15.87;7.47;;;6.00;99.90;;;;;;5051943;28;20177;-62
2022/12/06 05:57:45;;;;;;;14.47;7.90;;;6.10;99.90;;;;;;5036165;28;20323;-61
2022/12/06 06:00:11;;;;;;;22.13;8.00;;;5.90;99.90;;;;;;5037389;28;20188;-61
2022/12/06 06:02:37;;;;;;;17.10;7.70;;;6.30;99.90;;;;;;5018272;28;20199;-61
2022/12/06 06:05:03;;;;;;;17.40;7.97;;;6.60;99.90;;;;;;5051568;28;20655;-62
2022/12/06 06:07:29;;;;;;;19.10;7.97;;;6.60;99.90;;;;;;5044130;28;20223;-62
2022/12/06 06:09:54;;;;;;;17.83;7.70;;;6.50;99.90;;;;;;5048911;28;20244;-62
2022/12/06 06:12:20;;;;;;;15.77;7.90;;;6.30;99.90;;;;;;5049094;28;20182;-61
2022/12/06 06:14:46;;;;;;;17.80;7.87;;;6.60;99.90;;;;;;5032351;28;20170;-62
2022/12/06 06:17:12;;;;;;;24.07;8.47;;;6.30;99.90;;;;;;5032318;28;20701;-62
2022/12/06 06:19:38;;;;;;;14.27;7.93;;;6.00;99.90;;;;;;5013772;28;20236;-62
2022/12/06 06:22:04;;;;;;;17.03;8.07;;;6.00;99.90;;;;;;5032368;28;20204;-63
2022/12/06 06:24:37;;;;;;;15.93;7.60;;;6.10;99.90;;;;;;5027467;28;20178;-62
2022/12/06 06:27:03;;;;;;;17.47;7.57;;;6.10;99.90;;;;;;5051904;28;20216;-63
2022/12/06 06:29:29;;;;;;;20.00;8.27;;;6.00;99.90;;;;;;5051968;28;20173;-62
2022/12/06 06:31:55;;;;;;;22.43;8.73;;;6.10;99.90;;;;;;5051973;28;20186;-62
2022/12/06 06:34:21;;;;;;;16.97;8.53;;;;;;;;;;5051859;28;20220;-63
2022/12/06 06:36:47;;;;;;;21.27;8.27;;;;;;;;;;5051875;28;20174;-60
2022/12/06 06:39:13;;;;;;;14.90;7.93;;;6.20;99.90;;;;;;5051852;28;20181;-61
2022/12/06 06:41:39;;;;;;;14.33;7.70;;;6.20;99.90;;;;;;5051943;28;20632;-61
2022/12/06 06:44:05;;;;;;;14.73;7.87;;;;;;;;;;5051606;28;20235;-61
2022/12/06 06:46:30;;;;;;;15.53;7.70;;;6.50;99.90;;;;;;5045814;28;20201;-61
2022/12/06 06:48:56;;;;;;;18.87;7.80;;;6.40;99.90;;;;;;5006667;28;20672;-61
2022/12/06 06:51:22;;;;;;;14.37;7.07;;;5.80;99.90;;;;;;5051381;28;20222;-61
2022/12/06 06:53:47;;;;;;;14.47;7.20;;;5.90;99.90;;;;;;5051180;28;20212;-61
2022/12/06 06:56:13;;;;;;;13.80;6.93;;;6.10;99.90;;;;;;5037583;28;20196;-62
2022/12/06 06:58:39;;;;;;;14.90;7.40;;;5.80;99.90;;;;;;5038003;28;20186;-62
2022/12/06 07:01:07;;;;;;;15.83;6.73;;;5.90;99.90;;;;;;5049021;28;20644;-62
2022/12/06 07:03:33;;;;;;;16.20;6.40;;;5.80;99.90;;;;;;5041479;28;20178;-62
2022/12/06 07:06:06;;;;;;;11.77;6.73;;;5.80;99.90;;;;;;5051285;28;20754;-61
2022/12/06 07:08:31;;;;;;;15.13;6.37;;;5.70;99.90;;;;;;5034129;28;20182;-61
2022/12/06 07:10:58;;;;;;;15.67;5.97;;;;;;;;;;5038845;28;20594;-61
2022/12/06 07:13:25;;;;;;;14.50;7.13;;;6.00;99.90;;;;;;5049841;28;20189;-61
2022/12/06 07:15:51;;;;;;;16.20;6.20;;;5.70;99.90;;;;;;5051035;28;20283;-62
2022/12/06 07:18:18;;;;;;;11.23;6.10;;;5.60;99.90;;;;;;5049270;28;20687;-62
2022/12/06 07:20:44;;;;;;;17.50;6.77;;;5.40;99.90;;;;;;5037849;28;20256;-63
2022/12/06 07:23:10;;;;;;;16.57;6.87;;;5.50;99.90;;;;;;5028783;28;20264;-62
2022/12/06 07:25:37;;;;;;;15.73;6.67;;;6.80;99.90;;;;;;5050728;28;20593;-62
2022/12/06 07:28:03;;;;;;;16.70;6.10;;;5.90;99.90;;;;;;5050932;28;20189;-63
2022/12/06 07:30:29;;;;;;;19.60;6.83;;;5.60;99.90;;;;;;5050578;28;20215;-63
2022/12/06 07:32:55;;;;;;;11.53;5.70;;;5.70;99.90;;;;;;5050545;28;20220;-63
2022/12/06 07:35:21;;;;;;;14.60;6.00;;;5.80;99.90;;;;;;5050907;28;20562;-63
2022/12/06 07:37:47;;;;;;;14.53;6.27;;;5.70;99.90;;;;;;5050281;28;20181;-63
2022/12/06 07:40:14;;;;;;;13.17;5.63;;;6.30;99.90;;;;;;5032139;28;20532;-63
2022/12/06 07:45:24;;;;;;;16.03;5.50;;;;;;;;;;5051141;28;20709;-64
2022/12/06 07:47:50;;;;;;;73.10;9.17;;;5.60;99.90;;;;;;5050104;28;20217;-63
2022/12/06 07:50:18;;;;;;;17.60;5.43;;;5.90;99.90;;;;;;5050276;28;20185;-63
2022/12/06 07:52:44;;;;;;;12.60;4.77;;;5.70;99.90;;;;;;5050031;28;20712;-63
2022/12/06 07:55:11;;;;;;;13.30;4.83;;;5.80;99.90;;;;;;5050163;28;20174;-61
2022/12/06 07:57:37;;;;;;;11.43;5.00;;;5.70;99.90;;;;;;5049660;28;20307;-59
2022/12/06 08:00:05;;;;;;;12.07;4.87;;;5.80;99.90;;;;;;5048654;28;20212;-59
2022/12/06 08:02:31;;;;;;;11.30;4.67;;;5.70;99.90;;;;;;5040779;28;20216;-60
2022/12/06 08:04:57;;;;;;;14.37;5.00;;;5.70;99.90;;;;;;5041716;28;20205;-60
2022/12/06 08:07:23;;;;;;;12.53;5.13;;;5.50;99.90;;;;;;5047005;28;20213;-60
2022/12/06 08:09:52;;;;;;;11.23;5.13;;;7.80;99.90;;;;;;5049551;28;20234;-61
2022/12/06 08:12:18;;;;;;;14.90;5.13;;;5.70;99.90;;;;;;5049910;28;20192;-61
2022/12/06 08:14:43;;;;;;;16.63;4.57;;;5.60;99.90;;;;;;5029268;28;20553;-66
2022/12/06 08:17:09;;;;;;;16.20;4.67;;;5.70;99.90;;;;;;5045264;28;20204;-66
2022/12/06 08:19:34;;;;;;;20.07;5.20;;;5.90;99.90;;;;;;5048867;28;20208;-60
2022/12/06 08:22:00;;;;;;;16.93;4.93;;;5.70;99.90;;;;;;5050350;28;20197;-62
2022/12/06 08:24:26;;;;;;;14.83;4.10;;;5.50;99.90;;;;;;5050388;28;20243;-62
2022/12/06 08:26:52;;;;;;;20.83;4.77;;;5.60;99.90;;;;;;5037795;28;20730;-62
2022/12/06 08:29:18;;;;;;;16.77;4.33;;;5.60;99.90;;;;;;5030526;28;20176;-62
2022/12/06 08:31:44;;;;;;;14.10;3.97;;;5.50;99.90;;;;;;5030594;28;20232;-61
2022/12/06 08:34:11;;;;;;;14.43;4.47;;;5.30;99.90;;;;;;5039387;28;20389;-61
2022/12/06 08:36:38;;;;;;;14.07;4.70;;;6.40;99.90;;;;;;5039183;28;20181;-62
2022/12/06 08:39:05;;;;;;;11.43;4.10;;;5.50;99.90;;;;;;5030181;28;20188;-60
2022/12/06 08:44:16;;;;;;;10.53;3.83;;;5.70;99.90;;;;;;5033997;28;20592;-60
2022/12/06 08:46:42;;;;;;;14.30;4.13;;;5.50;99.90;;;;;;5044589;28;20209;-60
2022/12/06 08:49:08;;;;;;;14.57;4.03;;;5.20;99.90;;;;;;5053957;28;20191;-61
2022/12/06 08:51:36;;;;;;;9.47;4.20;;;5.40;99.90;;;;;;5053785;28;20192;-61
2022/12/06 08:54:02;;;;;;;14.53;4.33;;;5.60;99.90;;;;;;5049310;28;20173;-60
2022/12/06 08:56:28;;;;;;;10.33;4.30;;;5.60;99.90;;;;;;5041811;28;20235;-61
2022/12/06 08:58:55;;;;;;;14.20;4.63;;;5.50;99.90;;;;;;5053697;28;20181;-61
2022/12/06 09:01:26;;;;;;;8.03;3.97;;;5.50;99.90;;;;;;5053885;28;20192;-60
2022/12/06 09:03:52;;;;;;;15.83;4.57;;;5.60;99.90;;;;;;5053529;28;20161;-61
2022/12/06 09:06:19;;;;;;;13.87;4.90;;;6.60;99.90;;;;;;5052575;28;20607;-61
2022/12/06 09:08:45;;;;;;;9.07;4.10;;;5.90;99.90;;;;;;5052037;28;20162;-61
2022/12/06 09:11:12;;;;;;;15.13;3.77;;;6.00;99.90;;;;;;5049914;28;20215;-61
2022/12/06 09:13:38;;;;;;;12.93;4.33;;;6.90;99.90;;;;;;5051477;28;20399;-62
2022/12/06 09:16:12;;;;;;;12.53;4.20;;;5.90;99.90;;;;;;5045739;28;20212;-58
2022/12/06 09:18:38;;;;;;;15.93;4.07;;;5.90;99.90;;;;;;5052667;28;20259;-58
2022/12/06 09:21:05;;;;;;;9.77;4.20;;;5.80;99.90;;;;;;5053381;28;20514;-56
2022/12/06 09:23:31;;;;;;;12.43;4.07;;;6.10;99.90;;;;;;5052262;28;20671;-56
2022/12/06 09:25:56;;;;;;;10.87;3.80;;;6.10;99.90;;;;;;5049418;28;20269;-57
2022/12/06 09:28:22;;;;;;;20.63;4.40;;;6.70;99.90;;;;;;5033419;28;20551;-58
2022/12/06 09:30:48;;;;;;;12.00;3.77;;;6.10;99.90;;;;;;5033277;28;20257;-60
2022/12/06 09:33:13;;;;;;;7.70;3.90;;;6.40;99.90;;;;;;5051512;28;20739;-59
2022/12/06 09:35:39;;;;;;;6.27;3.73;;;6.10;99.90;;;;;;5052217;28;20178;-58
2022/12/06 09:38:05;;;;;;;10.57;3.87;;;6.10;99.90;;;;;;5033030;28;20178;-58
2022/12/06 09:40:57;;;;;;;11.60;3.93;;;6.30;99.90;;;;;;5032870;28;20244;-58
2022/12/06 09:43:36;;;;;;;11.97;3.57;;;6.50;99.90;;;;;;5049243;28;20250;-58
2022/12/06 09:46:14;;;;;;;11.70;4.30;;;6.60;99.90;;;;;;5052331;28;20212;-58
2022/12/06 09:48:55;;;;;;;10.90;3.67;;;6.70;99.90;;;;;;5051677;28;20636;-56
2022/12/06 09:51:24;;;;;;;12.03;3.70;;;6.80;99.90;;;;;;5051361;28;20182;-58
2022/12/06 09:54:16;;;;;;;11.83;3.47;;;6.80;99.90;;;;;;5051949;28;20166;-58
2022/12/06 09:56:51;;;;;;;14.03;3.93;;;7.00;99.90;;;;;;5052594;28;20213;-58
2022/12/06 09:59:34;;;;;;;11.13;3.97;;;6.90;99.90;;;;;;5048958;28;20253;-58
2022/12/06 10:02:24;;;;;;;15.37;3.90;;;6.90;99.90;;;;;;5032651;28;20260;-58
2022/12/06 10:04:52;;;;;;;10.60;3.33;;;7.00;99.90;;;;;;5028543;28;20178;-57
2022/12/06 10:07:24;;;;;;;13.70;3.77;;;6.90;99.90;;;;;;5036322;28;20209;-57
2022/12/06 10:09:55;;;;;;;11.67;3.70;;;6.90;99.90;;;;;;5050263;28;20187;-57
2022/12/06 10:13:03;;;;;;;7.40;3.20;;;6.80;99.90;;;;;;5052421;28;20181;-58
2022/12/06 10:16:02;;;;;;;8.93;3.67;;;6.90;99.90;;;;;;5049966;28;20188;-58
2022/12/06 10:18:53;;;;;;;10.20;3.93;;;8.50;99.90;;;;;;5030173;28;20181;-58
2022/12/06 10:21:34;;;;;;;10.90;3.80;;;7.20;99.90;;;;;;5030032;28;20166;-59
2022/12/06 10:24:32;;;;;;;13.10;3.47;;;7.10;99.90;;;;;;5038858;28;20247;-58
2022/12/06 10:27:11;;;;;;;9.43;2.93;;;7.20;99.90;;;;;;5033632;28;20209;-58
2022/12/06 10:29:59;;;;;;;8.60;3.30;;;7.20;99.90;;;;;;5051405;28;20181;-57
2022/12/06 10:32:25;;;;;;;10.00;4.00;;;7.30;99.90;;;;;;5051210;28;20232;-57
2022/12/06 10:35:03;;;;;;;10.00;2.83;;;7.30;99.90;;;;;;5050024;28;20181;-58
2022/12/06 10:37:35;;;;;;;14.40;2.80;;;7.40;99.90;;;;;;5051462;28;20205;-58
2022/12/06 10:40:25;;;;;;;10.50;3.67;;;7.40;99.90;;;;;;5050324;28;20227;-57
2022/12/06 10:43:04;;;;;;;10.53;3.50;;;7.60;99.90;;;;;;5038401;28;20185;-57
2022/12/06 10:48:33;;;;;;;11.17;3.43;;;7.40;99.90;;;;;;5047222;28;20197;-57
2022/12/06 10:51:13;;;;;;;14.77;3.20;;;7.20;99.90;;;;;;5040451;28;20169;-57
2022/12/06 10:53:49;;;;;;;6.90;3.03;;;6.50;99.90;;;;;;5051595;28;20268;-57
2022/12/06 10:56:25;;;;;;;7.90;3.27;;;8.10;99.90;;;;;;5051567;28;20224;-57
2022/12/06 10:59:16;;;;;;;7.27;3.13;;;7.10;99.90;;;;;;5049074;28;20176;-57
2022/12/06 11:01:43;;;;;;;8.83;3.47;;;7.00;99.90;;;;;;5048011;28;20224;-57
2022/12/06 11:04:22;;;;;;;11.30;3.53;;;7.20;99.90;;;;;;5051143;28;20195;-58
2022/12/06 11:07:15;;;;;;;7.63;3.33;;;7.50;99.90;;;;;;5051333;28;20212;-58
2022/12/06 11:09:44;;;;;;;13.80;3.73;;;7.30;99.90;;;;;;5049299;28;20180;-57
2022/12/06 11:12:33;;;;;;;9.77;3.47;;;7.20;99.90;;;;;;5031286;28;20199;-57
2022/12/06 11:15:15;;;;;;;8.90;3.60;;;7.00;99.90;;;;;;5033936;28;20174;-57
2022/12/06 11:17:46;;;;;;;9.97;3.87;;;7.10;99.90;;;;;;5040401;28;20208;-57
2022/12/06 11:20:28;;;;;;;10.13;3.20;;;7.30;99.90;;;;;;5038441;28;20177;-57
2022/12/06 11:23:04;;;;;;;12.77;3.50;;;7.60;99.90;;;;;;5049519;28;20233;-56
2022/12/06 11:26:01;;;;;;;8.77;3.50;;;7.70;99.90;;;;;;5051198;28;20196;-57
2022/12/06 11:28:37;;;;;;;10.00;3.10;;;7.80;99.90;;;;;;5050277;28;20184;-57
2022/12/06 11:31:23;;;;;;;8.33;3.00;;;7.40;99.90;;;;;;5045799;28;20217;-57
2022/12/06 11:33:49;;;;;;;6.77;3.10;;;7.90;99.90;;;;;;5030975;28;20213;-58
2022/12/06 11:36:15;;;;;;;7.93;3.10;;;8.00;99.90;;;;;;5030872;28;20546;-58
2022/12/06 11:38:42;;;;;;;10.37;3.17;;;8.10;99.90;;;;;;5031129;28;20639;-57
2022/12/06 11:41:17;;;;;;;10.30;3.47;;;8.20;99.90;;;;;;5050573;28;20267;-58
2022/12/06 11:43:42;;;;;;;8.77;2.97;;;8.90;99.90;;;;;;5050063;28;20627;-57
2022/12/06 11:46:10;;;;;;;5.90;3.27;;;10.00;99.90;;;;;;5048935;28;20203;-57
2022/12/06 11:48:36;;;;;;;7.67;3.33;;;15.00;99.90;;;;;;5031956;28;20209;-57
2022/12/06 11:51:14;;;;;;;7.53;2.50;;;15.10;99.90;;;;;;5042613;28;20173;-57
2022/12/06 11:53:52;;;;;;;7.35;2.90;;;20.60;99.90;;;;;;5050409;28;20222;-56
2022/12/06 11:56:25;;;;;;;10.35;3.05;;;21.40;99.90;;;;;;5050982;28;20188;-56
2022/12/06 11:59:29;;;;;;;6.35;3.05;;;21.40;99.90;;;;;;5050720;28;20299;-56
2022/12/06 12:01:59;;;;;;;9.43;2.20;;;21.60;99.90;;;;;;5035277;28;20169;-56
2022/12/06 12:04:35;;;;;;;5.05;2.25;;;22.60;99.90;;;;;;5050966;28;20300;-56
2022/12/06 12:07:21;;;;;;;6.80;1.90;;;22.60;99.90;;;;;;5049781;28;20250;-57
2022/12/06 12:09:58;;;;;;;8.30;2.40;;;22.90;99.90;;;;;;5049365;28;20169;-56
2022/12/06 12:13:42;;;;;;;4.95;2.55;;;22.20;99.90;;;;;;5049442;28;20181;-56
2022/12/06 12:15:21;;;;;;;4.95;2.20;;;20.60;99.90;;;;;;5048976;28;20438;-56
2022/12/06 12:17:51;;;;;;;4.20;2.53;;;20.40;99.90;;;;;;5051563;28;20169;-56
2022/12/06 12:20:27;;;;;;;7.32;2.60;;;21.40;99.90;;;;;;5053443;28;20162;-56
2022/12/06 12:23:15;;;;;;;6.63;2.47;;;22.30;99.90;;;;;;5054131;28;20252;-58
2022/12/06 12:25:43;;;;;;;7.57;2.42;;;21.90;99.90;;;;;;5054356;28;20204;-58
2022/12/06 12:28:25;;;;;;;6.97;2.50;;;23.00;99.90;;;;;;5054428;28;20235;-57
2022/12/06 12:30:52;;;;;;;5.18;2.42;;;22.70;99.90;;;;;;5054238;28;20185;-56
2022/12/06 12:33:20;;;;;;;5.03;2.08;;;22.80;99.90;;;;;;5053876;28;20208;-57
2022/12/06 12:35:52;;;;;;;5.07;2.63;;;22.90;99.90;;;;;;5036605;28;20173;-57
2022/12/06 12:38:24;;;;;;;7.18;2.17;;;22.70;99.90;;;;;;5054095;28;20176;-57
2022/12/06 12:41:00;;;;;;;5.13;2.20;;;23.30;99.90;;;;;;5054201;28;20239;-57
2022/12/06 12:43:30;;;;;;;4.43;2.35;;;22.90;99.90;;;;;;5053894;28;20540;-57
2022/12/06 12:46:09;;;;;;;7.22;2.90;;;23.20;99.90;;;;;;5053975;28;20259;-57
2022/12/06 12:48:40;;;;;;;5.97;2.83;;;22.90;99.90;;;;;;5053894;28;20260;-57
2022/12/06 12:51:21;;;;;;;6.00;2.17;;;22.20;99.90;;;;;;5053977;28;20505;-57
2022/12/06 12:53:51;;;;;;;7.53;2.80;;;21.90;99.90;;;;;;5053811;28;20181;-57
2022/12/06 12:56:19;;;;;;;8.63;2.72;;;23.40;99.90;;;;;;5053712;28;20201;-57
2022/12/06 12:58:47;;;;;;;6.47;2.50;;;23.40;99.90;;;;;;5053714;28;20197;-57
2022/12/06 13:01:22;;;;;;;9.52;3.08;;;23.00;99.90;;;;;;5053766;28;20659;-57
2022/12/06 13:04:02;;;;;;;5.00;2.63;;;22.70;99.90;;;;;;5053707;28;20211;-57
2022/12/06 13:07:04;;;;;;;5.93;2.58;;;21.90;99.90;;;;;;5053504;28;20181;-57
2022/12/06 13:09:50;;;;;;;11.23;2.67;;;22.50;99.90;;;;;;5053644;28;20171;-57
2022/12/06 13:12:23;;;;;;;7.18;2.63;;;22.90;99.90;;;;;;5053545;28;20216;-57
2022/12/06 13:14:54;;;;;;;7.78;2.47;;;22.70;99.90;;;;;;5053443;28;20176;-57
2022/12/06 13:17:24;;;;;;;7.07;2.65;;;21.00;99.90;;;;;;5053508;28;20224;-57
2022/12/06 13:19:51;;;;;;;8.13;3.20;;;19.70;99.90;;;;;;5053341;28;20169;-57
2022/12/06 13:22:22;;;;;;;5.47;2.40;;;20.50;99.90;;;;;;5053255;28;20205;-57
2022/12/06 13:24:57;;;;;;;5.63;2.80;;;18.80;99.90;;;;;;5053756;28;20172;-57
2022/12/06 13:27:24;;;;;;;3.53;2.25;;;17.00;99.90;;;;;;5050447;28;20214;-56
2022/12/06 13:30:02;;;;;;;5.55;2.13;;;15.40;99.90;;;;;;5053189;28;20169;-56
2022/12/06 13:33:17;;;;;;;7.45;2.22;;;14.80;99.90;;;;;;5052932;28;20175;-57
2022/12/06 13:35:53;;;;;;;6.68;2.25;;;13.40;99.90;;;;;;4952621;28;20199;-57